Time;durP1;ratioP1;P1;durP2;ratioP2;P2;SDS_P1;SDS_P2;PMS_P1;PMS_P2;Temp;Humidity;BMP_temperature;BMP_pressure;BME280_temperature;BME280_humidity;BME280_pressure;Samples;Min_cycle;Max_cycle;Signal;HPM_P1;HPM_P2
2023/05/27 00:00:55;;;;;;;21.55;7.05;;;;;;;9.94;78.87;102819.75;5028662;28;20370;-73
2023/05/27 00:03:20;;;;;;;18.25;6.38;;;;;;;9.92;79.46;102818.13;5029091;28;20486;-73
2023/05/27 00:05:46;;;;;;;20.55;6.38;;;;;;;9.89;79.54;102812.97;5027943;28;20136;-73
2023/05/27 00:08:13;;;;;;;21.17;6.05;;;;;;;9.88;79.53;102820.00;5008644;28;20050;-73
2023/05/27 00:10:38;;;;;;;19.77;6.15;;;;;;;9.85;79.52;102819.28;5003865;28;20057;-73
2023/05/27 00:13:04;;;;;;;19.35;6.32;;;;;;;9.79;80.28;102812.50;5009987;28;20413;-73
2023/05/27 00:15:30;;;;;;;20.27;6.38;;;;;;;9.72;80.29;102816.28;5008557;28;20033;-73
2023/05/27 00:17:58;;;;;;;22.98;6.45;;;;;;;9.73;80.72;102818.84;5019112;28;20028;-73
2023/05/27 00:20:23;;;;;;;19.73;6.35;;;;;;;9.72;80.52;102819.75;5028700;28;20505;-73
2023/05/27 00:22:50;;;;;;;26.02;6.82;;;;;;;9.60;81.27;102811.47;5029477;28;20017;-73
2023/05/27 00:25:16;;;;;;;22.48;6.78;;;;;;;9.54;81.32;102812.56;5028593;28;20041;-72
2023/05/27 00:27:41;;;;;;;19.33;6.47;;;;;;;9.55;81.04;102809.03;5027333;28;20029;-72
2023/05/27 00:30:08;;;;;;;23.75;6.57;;;;;;;9.52;81.51;102808.28;5010047;28;20083;-72
2023/05/27 00:32:33;;;;;;;20.83;6.40;;;;;;;9.52;81.72;102803.88;5027143;28;20060;-73
2023/05/27 00:35:01;;;;;;;23.77;6.75;;;;;;;9.59;81.28;102809.75;5030740;28;20025;-72
2023/05/27 00:37:27;;;;;;;19.60;7.05;;;;;;;9.47;81.62;102804.97;5032045;28;20592;-72
2023/05/27 00:39:53;;;;;;;21.85;6.65;;;;;;;9.46;81.60;102806.75;5013008;28;20770;-72
2023/05/27 00:42:19;;;;;;;23.02;7.07;;;;;;;9.40;82.01;102797.34;5030231;28;20060;-72
2023/05/27 00:44:45;;;;;;;21.67;6.60;;;;;;;9.35;81.98;102799.28;5030543;28;20029;-72
2023/05/27 00:47:11;;;;;;;18.00;6.07;;;;;;;9.34;82.06;102797.56;5012516;28;20112;-72
2023/05/27 00:49:37;;;;;;;22.00;6.82;;;;;;;9.18;82.57;102799.03;5011231;28;20061;-71
2023/05/27 00:52:03;;;;;;;19.98;6.47;;;;;;;9.20;83.05;102805.09;5013360;28;20446;-73
2023/05/27 00:54:31;;;;;;;19.50;6.72;;;;;;;9.17;83.31;102799.94;5013277;28;20482;-71
2023/05/27 00:56:57;;;;;;;18.50;6.53;;;;;;;9.16;83.27;102795.59;5031576;28;20022;-71
2023/05/27 00:59:23;;;;;;;25.58;6.50;;;;;;;9.06;83.36;102802.97;5031238;28;20034;-71
2023/05/27 01:01:49;;;;;;;17.10;5.78;;;;;;;9.04;83.62;102801.31;5013917;28;20430;-71
2023/05/27 01:04:17;;;;;;;17.63;6.20;;;;;;;8.98;83.85;102793.66;5032287;28;20025;-71
2023/05/27 01:06:48;;;;;;;19.85;6.50;;;;;;;8.92;83.96;102788.63;5032520;28;20049;-71
2023/05/27 01:09:30;;;;;;;22.30;6.70;;;;;;;8.92;84.05;102797.38;5013854;28;20033;-71
2023/05/27 01:12:07;;;;;;;21.25;6.60;;;;;;;8.81;84.36;102794.28;5032651;28;20030;-72
2023/05/27 01:14:36;;;;;;;21.85;6.28;;;;;;;8.79;84.53;102794.31;5032549;28;20108;-72
2023/05/27 01:17:05;;;;;;;20.95;6.03;;;;;;;8.77;84.90;102788.25;5013612;28;20033;-72
2023/05/27 01:19:34;;;;;;;21.25;6.25;;;;;;;8.75;84.87;102795.31;5032245;28;20036;-71
2023/05/27 01:22:01;;;;;;;15.20;5.47;;;;;;;8.81;85.05;102789.03;5031289;28;20032;-71
2023/05/27 01:24:27;;;;;;;19.52;6.38;;;;;;;8.72;84.48;102790.19;5013668;28;20406;-72
2023/05/27 01:26:53;;;;;;;21.75;6.13;;;;;;;8.76;84.85;102783.91;5024937;28;20025;-72
2023/05/27 01:29:19;;;;;;;17.85;6.22;;;;;;;8.67;84.80;102786.88;5012516;28;20035;-71
2023/05/27 01:31:55;;;;;;;17.73;6.18;;;;;;;8.64;85.07;102786.97;5031064;28;20021;-72
2023/05/27 01:34:27;;;;;;;17.20;6.40;;;;;;;8.61;85.09;102780.97;5029948;28;20509;-71
2023/05/27 01:36:58;;;;;;;18.10;6.65;;;;;;;8.62;85.40;102780.06;5019364;28;20025;-72
2023/05/27 01:39:26;;;;;;;20.60;6.30;;;;;;;8.63;85.03;102769.53;5030157;28;20027;-71
2023/05/27 01:41:52;;;;;;;18.42;5.80;;;;;;;8.56;85.14;102773.28;5030871;28;20025;-71
2023/05/27 01:44:19;;;;;;;19.90;5.80;;;;;;;8.54;85.41;102775.09;5012083;28;20112;-71
2023/05/27 01:46:45;;;;;;;21.10;6.68;;;;;;;8.50;85.47;102770.88;5030696;28;20025;-72
2023/05/27 01:49:10;;;;;;;19.98;6.03;;;;;;;8.47;85.69;102768.34;5012660;28;20056;-72
2023/05/27 01:51:36;;;;;;;18.13;5.53;;;;;;;8.45;86.02;102770.16;5028679;28;20029;-72
2023/05/27 01:54:02;;;;;;;22.15;6.25;;;;;;;8.46;86.05;102766.63;5012495;28;20041;-72
2023/05/27 01:56:27;;;;;;;15.48;5.97;;;;;;;8.40;86.21;102772.91;5030510;28;20030;-72
2023/05/27 01:58:53;;;;;;;19.38;6.38;;;;;;;8.40;86.28;102764.19;5029763;28;20040;-72
2023/05/27 02:01:18;;;;;;;18.48;6.03;;;;;;;8.37;86.41;102762.53;5030219;28;20025;-72
2023/05/27 02:03:44;;;;;;;20.40;6.55;;;;;;;8.36;86.72;102759.97;5031390;28;20060;-72
2023/05/27 02:06:09;;;;;;;19.80;6.43;;;;;;;8.35;86.60;102763.50;5027962;28;20049;-72
2023/05/27 02:08:35;;;;;;;18.08;6.00;;;;;;;8.32;86.91;102759.19;5030153;28;20108;-72
2023/05/27 02:11:00;;;;;;;19.40;6.32;;;;;;;8.30;86.96;102763.63;5029907;28;20021;-72
2023/05/27 02:13:25;;;;;;;19.42;6.20;;;;;;;8.28;87.13;102765.44;5030823;28;20475;-72
2023/05/27 02:15:51;;;;;;;20.75;6.43;;;;;;;8.26;87.31;102776.91;5031567;28;20022;-72
2023/05/27 02:18:17;;;;;;;18.00;6.28;;;;;;;8.25;87.53;102770.78;5028956;28;20025;-76
2023/05/27 02:20:42;;;;;;;16.75;5.72;;;;;;;8.26;87.61;102769.88;5013320;28;20029;-73
2023/05/27 02:23:07;;;;;;;16.55;6.38;;;;;;;8.16;88.03;102774.59;5029835;28;20021;-72
2023/05/27 02:25:33;;;;;;;23.30;7.05;;;;;;;8.16;88.06;102778.97;5025042;28;20101;-72
2023/05/27 02:28:02;;;;;;;21.05;6.43;;;;;;;8.12;88.42;102772.13;5028391;28;20049;-72
2023/05/27 02:30:29;;;;;;;22.02;7.15;;;;;;;8.09;88.51;102770.47;5030218;28;20440;-72
2023/05/27 02:32:55;;;;;;;15.85;5.60;;;;;;;8.06;89.12;102769.69;5029227;28;20056;-72
2023/05/27 02:35:21;;;;;;;19.77;6.78;;;;;;;8.05;88.74;102776.72;5029876;28;20056;-72
2023/05/27 02:37:46;;;;;;;18.65;6.40;;;;;;;8.00;89.38;102773.34;5029535;28;20029;-72
2023/05/27 02:40:12;;;;;;;19.95;6.50;;;;;;;7.99;89.14;102771.63;5028605;28;20086;-72
2023/05/27 02:42:38;;;;;;;18.40;6.57;;;;;;;7.96;89.61;102776.97;5012012;28;20083;-72
2023/05/27 02:45:04;;;;;;;22.65;6.63;;;;;;;7.94;89.48;102768.31;5029367;28;20108;-72
2023/05/27 02:47:29;;;;;;;20.83;6.97;;;;;;;7.94;89.74;102770.94;5028687;28;20044;-72
2023/05/27 02:49:55;;;;;;;21.92;6.72;;;;;;;7.92;90.07;102762.25;5018747;28;20029;-76
2023/05/27 02:52:20;;;;;;;16.60;6.18;;;;;;;7.91;90.10;102776.28;5029483;28;20385;-71
2023/05/27 02:54:45;;;;;;;22.55;7.45;;;;;;;7.87;90.40;102779.91;5011003;28;20383;-72
2023/05/27 02:57:10;;;;;;;18.48;7.07;;;;;;;7.85;90.45;102779.94;5028838;28;20026;-72
2023/05/27 02:59:36;;;;;;;20.50;7.13;;;;;;;7.83;90.37;102787.00;5029911;28;20048;-75
2023/05/27 03:02:01;;;;;;;25.58;7.80;;;;;;;7.83;90.87;102786.16;5029186;28;20032;-71
2023/05/27 03:04:26;;;;;;;23.10;6.82;;;;;;;7.80;90.83;102786.25;5030643;28;20025;-72
2023/05/27 03:06:52;;;;;;;21.63;6.85;;;;;;;7.75;91.26;102788.16;5030047;28;20049;-72
2023/05/27 03:09:17;;;;;;;24.98;7.25;;;;;;;7.73;91.39;102784.72;5029778;28;20593;-72
2023/05/27 03:11:42;;;;;;;17.90;6.90;;;;;;;7.70;91.65;102792.69;5030692;28;20048;-72
2023/05/27 03:14:08;;;;;;;19.83;6.78;;;;;;;7.70;92.04;102783.06;5012418;28;20033;-71
2023/05/27 03:16:33;;;;;;;23.95;7.40;;;;;;;7.72;91.83;102789.09;5029712;28;20204;-73
2023/05/27 03:19:03;;;;;;;24.92;7.28;;;;;;;7.65;92.26;102789.34;5030105;28;20052;-72
2023/05/27 03:21:28;;;;;;;22.00;7.13;;;;;;;7.65;92.57;102786.72;5028457;28;20101;-72
2023/05/27 03:23:54;;;;;;;20.58;7.55;;;;;;;7.64;92.62;102782.41;5028959;28;20458;-71
2023/05/27 03:26:20;;;;;;;18.58;6.88;;;;;;;7.61;92.82;102785.97;5029153;28;20044;-72
2023/05/27 03:28:45;;;;;;;22.13;7.13;;;;;;;7.60;92.76;102786.84;5028184;28;20028;-72
2023/05/27 03:31:12;;;;;;;19.88;6.78;;;;;;;7.61;92.91;102778.09;5028632;28;20414;-72
2023/05/27 03:33:38;;;;;;;24.67;7.72;;;;;;;7.60;93.31;102778.13;5028906;28;20379;-72
2023/05/27 03:36:03;;;;;;;21.45;7.93;;;;;;;7.58;93.41;102772.06;5023806;28;20024;-72
2023/05/27 03:38:31;;;;;;;23.58;7.75;;;;;;;7.57;93.69;102773.84;5011466;28;20057;-71
2023/05/27 03:40:57;;;;;;;23.85;7.22;;;;;;;7.59;93.85;102771.16;5028918;28;20060;-76
2023/05/27 03:43:22;;;;;;;20.88;7.00;;;;;;;7.58;94.03;102764.22;5009999;28;20131;-76
2023/05/27 03:45:50;;;;;;;21.08;6.88;;;;;;;7.54;94.09;102764.31;5028741;28;20029;-75
2023/05/27 03:48:15;;;;;;;20.13;7.68;;;;;;;7.51;94.28;102764.41;5028494;28;20079;-72
2023/05/27 03:50:41;;;;;;;22.42;7.05;;;;;;;7.50;94.39;102756.59;5010338;28;20397;-72
2023/05/27 03:53:06;;;;;;;22.90;7.78;;;;;;;7.52;94.62;102760.03;5011727;28;20021;-72
2023/05/27 03:55:31;;;;;;;22.25;7.57;;;;;;;7.53;94.35;102752.13;5011975;28;20031;-72
2023/05/27 03:57:57;;;;;;;20.23;7.03;;;;;;;7.51;94.65;102759.16;5029126;28;20474;-72
2023/05/27 04:00:22;;;;;;;26.88;7.45;;;;;;;7.53;94.88;102757.38;5011611;28;20120;-72
2023/05/27 04:02:49;;;;;;;19.17;7.40;;;;;;;7.57;94.72;102758.13;5029750;28;20109;-73
2023/05/27 04:05:16;;;;;;;23.13;7.57;;;;;;;7.58;94.99;102757.22;5026901;28;20053;-72
2023/05/27 04:07:42;;;;;;;26.88;8.02;;;;;;;7.79;94.16;102763.56;5028298;28;20025;-71
2023/05/27 04:10:07;;;;;;;23.05;7.65;;;;;;;7.94;93.07;102751.72;5031689;28;20029;-71
2023/05/27 04:12:33;;;;;;;24.55;7.22;;;;;;;8.20;91.72;102753.50;5032397;28;20108;-71
2023/05/27 04:15:01;;;;;;;32.03;7.63;;;;;;;8.31;90.78;102757.47;5032398;28;20030;-73
2023/05/27 04:17:27;;;;;;;20.83;7.53;;;;;;;8.23;90.66;102758.66;5033334;28;20030;-73
2023/05/27 04:19:52;;;;;;;20.40;7.53;;;;;;;8.30;90.81;102757.53;5032719;28;20486;-73
2023/05/27 04:22:18;;;;;;;18.70;6.80;;;;;;;8.31;90.49;102751.38;5033329;28;20022;-73
2023/05/27 04:24:46;;;;;;;21.63;7.18;;;;;;;8.31;90.65;102748.75;5032094;28;20028;-73
2023/05/27 04:27:12;;;;;;;18.70;6.85;;;;;;;8.25;90.49;102752.44;5031419;28;20026;-73
2023/05/27 04:29:38;;;;;;;21.20;6.93;;;;;;;8.28;90.67;102746.22;5032399;28;20032;-73
2023/05/27 04:32:03;;;;;;;19.80;6.97;;;;;;;8.14;91.30;102742.31;5029751;28;20188;-73
2023/05/27 04:34:31;;;;;;;20.80;7.72;;;;;;;8.10;91.59;102753.81;5031806;28;20108;-73
2023/05/27 04:36:57;;;;;;;24.52;7.78;;;;;;;8.06;92.07;102740.88;5014531;28;20036;-73
2023/05/27 04:39:22;;;;;;;20.60;7.38;;;;;;;8.07;91.52;102735.56;5014004;28;20505;-73
2023/05/27 04:41:51;;;;;;;23.25;8.18;;;;;;;8.03;92.53;102728.72;5032353;28;20033;-73
2023/05/27 04:44:17;;;;;;;22.23;7.82;;;;;;;8.02;92.31;102734.00;5014444;28;20047;-73
2023/05/27 04:46:43;;;;;;;24.50;8.38;;;;;;;7.99;92.75;102734.09;5031478;28;20116;-71
2023/05/27 04:49:09;;;;;;;21.20;8.25;;;;;;;7.96;93.14;102727.19;5029026;28;20038;-72
2023/05/27 04:51:36;;;;;;;25.42;8.02;;;;;;;7.96;93.46;102740.28;5027437;28;20061;-72
2023/05/27 04:54:01;;;;;;;26.17;7.90;;;;;;;7.96;93.68;102723.69;5029334;28;20064;-72
2023/05/27 04:56:27;;;;;;;25.13;8.52;;;;;;;7.95;93.34;102728.09;5031853;28;20093;-72
2023/05/27 04:58:52;;;;;;;23.35;8.45;;;;;;;7.97;93.32;102726.28;5032305;28;20037;-72
2023/05/27 05:01:20;;;;;;;19.48;8.07;;;;;;;8.04;93.81;102719.94;5032015;28;20022;-71
2023/05/27 05:04:02;;;;;;;22.40;8.23;;;;;;;8.06;93.65;102722.50;5032481;28;20108;-72
2023/05/27 05:06:28;;;;;;;22.45;8.20;;;;;;;8.09;93.46;102714.53;5032595;28;20052;-72
2023/05/27 05:08:53;;;;;;;22.67;8.63;;;;;;;8.16;93.69;102716.03;5031510;28;20029;-72
2023/05/27 05:11:19;;;;;;;22.77;8.05;;;;;;;8.18;93.70;102720.31;5032625;28;20321;-72
2023/05/27 05:13:45;;;;;;;28.02;8.73;;;;;;;8.22;93.33;102720.22;5032311;28;20028;-72
2023/05/27 05:16:11;;;;;;;25.08;8.70;;;;;;;8.25;93.34;102725.34;5031464;28;20028;-73
2023/05/27 05:18:36;;;;;;;22.88;8.43;;;;;;;8.25;93.52;102720.97;5031942;28;20025;-72
2023/05/27 05:21:01;;;;;;;23.30;8.95;;;;;;;8.32;93.19;102726.84;5031055;28;20029;-72
2023/05/27 05:23:27;;;;;;;22.25;8.35;;;;;;;8.39;93.31;102729.25;5032279;28;20021;-72
2023/05/27 05:25:57;;;;;;;23.02;8.75;;;;;;;8.40;92.50;102724.84;5031990;28;20466;-72
2023/05/27 05:28:23;;;;;;;20.60;8.45;;;;;;;8.42;92.80;102723.06;5031264;28;20025;-71
2023/05/27 05:30:51;;;;;;;22.70;8.95;;;;;;;8.44;93.19;102716.00;5031840;28;20056;-72
2023/05/27 05:33:16;;;;;;;21.10;8.45;;;;;;;8.53;93.34;102715.66;5013847;28;20018;-72
2023/05/27 05:35:42;;;;;;;21.60;8.50;;;;;;;8.58;92.71;102710.25;5028787;28;20025;-73
2023/05/27 05:38:07;;;;;;;20.70;8.85;;;;;;;8.66;92.76;102711.69;5030583;28;20087;-73
2023/05/27 05:40:33;;;;;;;23.02;8.82;;;;;;;8.72;92.41;102703.59;5030832;28;20355;-73
2023/05/27 05:42:58;;;;;;;25.52;9.25;;;;;;;8.74;91.78;102714.88;5030021;28;20032;-73
2023/05/27 05:45:25;;;;;;;27.83;9.25;;;;;;;8.74;91.83;102720.13;5030535;28;20029;-73
2023/05/27 05:47:50;;;;;;;22.95;9.20;;;;;;;8.75;91.68;102708.72;5012912;28;20025;-73
2023/05/27 05:50:16;;;;;;;21.05;8.45;;;;;;;8.84;91.66;102714.56;5019343;28;20033;-72
2023/05/27 05:52:41;;;;;;;26.77;9.10;;;;;;;8.89;91.92;102705.59;5030458;28;20474;-71
2023/05/27 05:55:07;;;;;;;27.15;9.70;;;;;;;8.96;91.51;102709.72;5030161;28;20398;-72
2023/05/27 05:57:33;;;;;;;23.23;8.75;;;;;;;9.02;91.31;102692.88;5029947;28;20363;-72
2023/05/27 05:59:58;;;;;;;23.73;8.60;;;;;;;9.06;91.16;102695.31;5028688;28;20075;-71
2023/05/27 06:02:25;;;;;;;23.98;9.20;;;;;;;9.15;90.91;102699.34;5030256;28;20028;-72
2023/05/27 06:04:51;;;;;;;22.15;9.27;;;;;;;9.24;90.76;102695.53;5029010;28;20029;-72
2023/05/27 06:07:16;;;;;;;23.05;8.38;;;;;;;9.29;89.94;102697.06;5010549;28;20042;-72
2023/05/27 06:09:42;;;;;;;25.52;9.15;;;;;;;9.38;89.30;102696.72;5010775;28;20048;-72
2023/05/27 06:12:08;;;;;;;27.73;9.57;;;;;;;9.41;89.21;102701.84;5010341;28;20034;-72
2023/05/27 06:14:33;;;;;;;23.55;8.80;;;;;;;9.49;88.76;102698.06;5011595;28;20101;-72
2023/05/27 06:17:03;;;;;;;26.13;8.80;;;;;;;9.55;89.02;102693.41;5011110;28;20045;-72
2023/05/27 06:19:28;;;;;;;24.20;9.10;;;;;;;9.66;89.01;102693.84;5010580;28;20036;-73
2023/05/27 06:21:54;;;;;;;22.08;8.23;;;;;;;9.75;88.56;102692.63;4993706;28;20026;-73
2023/05/27 06:24:19;;;;;;;25.00;8.70;;;;;;;9.81;88.17;102688.88;5010480;28;20509;-72
2023/05/27 06:26:45;;;;;;;26.17;9.25;;;;;;;9.89;88.22;102682.38;5005007;28;20021;-72
2023/05/27 06:29:10;;;;;;;21.98;8.70;;;;;;;10.02;87.82;102688.00;5010652;28;20053;-72
2023/05/27 06:31:35;;;;;;;26.73;10.45;;;;;;;10.13;87.81;102682.28;5009756;28;20038;-73
2023/05/27 06:34:01;;;;;;;26.02;9.02;;;;;;;10.15;86.08;102678.66;5010131;28;20025;-73
2023/05/27 06:36:26;;;;;;;22.80;8.48;;;;;;;10.25;86.23;102685.25;5010333;28;20064;-73
2023/05/27 06:38:53;;;;;;;22.15;9.07;;;;;;;10.32;85.88;102673.53;5009270;28;20037;-72
2023/05/27 06:41:18;;;;;;;21.92;8.15;;;;;;;10.40;85.39;102670.56;5009979;28;20033;-73
2023/05/27 06:43:44;;;;;;;29.92;7.95;;;;;;;10.48;85.54;102670.25;5009873;28;20095;-72
2023/05/27 06:46:09;;;;;;;22.55;8.65;;;;;;;10.58;85.74;102672.41;5008647;28;20394;-72
2023/05/27 06:48:35;;;;;;;20.95;8.35;;;;;;;10.58;84.36;102669.78;5009768;28;20029;-72
2023/05/27 06:51:01;;;;;;;22.45;8.90;;;;;;;10.61;84.36;102671.41;5009374;28;20029;-72
2023/05/27 06:53:26;;;;;;;28.35;9.05;;;;;;;10.69;83.55;102669.28;5009313;28;20033;-72
2023/05/27 06:55:52;;;;;;;20.35;8.50;;;;;;;10.70;83.60;102672.75;5009554;28;20032;-73
2023/05/27 06:58:17;;;;;;;22.75;9.10;;;;;;;10.79;82.94;102674.97;4992117;28;20029;-73
2023/05/27 07:00:43;;;;;;;20.30;8.23;;;;;;;10.95;83.58;102665.47;5009091;28;20471;-72
2023/05/27 07:03:08;;;;;;;21.70;8.48;;;;;;;11.11;82.33;102666.44;5008782;28;20022;-72
2023/05/27 07:05:34;;;;;;;22.73;8.38;;;;;;;11.28;81.83;102663.88;5015181;28;20430;-73
2023/05/27 07:08:02;;;;;;;22.35;8.40;;;;;;;11.47;80.28;102662.97;5028103;28;20017;-72
2023/05/27 07:10:27;;;;;;;21.80;8.82;;;;;;;11.75;79.99;102662.50;5029181;28;20060;-73
2023/05/27 07:12:52;;;;;;;24.92;9.27;;;;;;;12.07;78.88;102664.41;5028958;28;20069;-73
2023/05/27 07:15:18;;;;;;;24.13;9.02;;;;;;;12.26;77.13;102659.00;5029185;28;20036;-73
2023/05/27 07:17:43;;;;;;;22.60;8.60;;;;;;;12.46;76.65;102652.72;5012020;28;20104;-72
2023/05/27 07:20:09;;;;;;;26.08;8.93;;;;;;;12.55;75.66;102649.56;5029372;28;20033;-72
2023/05/27 07:22:35;;;;;;;30.88;8.82;;;;;;;12.72;75.13;102661.84;5029294;28;20028;-72
2023/05/27 07:25:00;;;;;;;21.48;8.60;;;;;;;12.94;73.75;102657.13;5029527;28;20041;-73
2023/05/27 07:27:25;;;;;;;21.45;8.52;;;;;;;13.23;73.26;102660.00;5023809;28;20052;-72
2023/05/27 07:29:51;;;;;;;22.42;8.88;;;;;;;13.54;71.85;102657.28;5029169;28;20013;-72
2023/05/27 07:32:16;;;;;;;23.98;9.30;;;;;;;13.61;70.67;102656.03;5011807;28;20381;-72
2023/05/27 07:34:42;;;;;;;21.73;7.82;;;;;;;13.73;70.56;102647.34;5029151;28;20034;-73
2023/05/27 07:37:07;;;;;;;23.67;8.20;;;;;;;13.80;70.26;102651.34;5028769;28;20025;-72
2023/05/27 07:39:32;;;;;;;23.38;8.27;;;;;;;13.98;68.79;102648.53;5027525;28;20032;-72
2023/05/27 07:41:58;;;;;;;22.23;8.70;;;;;;;13.90;68.60;102643.72;5026696;28;20087;-72
2023/05/27 07:44:23;;;;;;;21.25;7.63;;;;;;;14.07;68.61;102642.72;5028505;28;20480;-72
2023/05/27 07:46:49;;;;;;;22.98;8.20;;;;;;;14.36;67.50;102641.78;5028125;28;20021;-72
2023/05/27 07:49:14;;;;;;;23.52;8.43;;;;;;;14.45;66.59;102637.78;5025418;28;20553;-72
2023/05/27 07:51:40;;;;;;;24.58;9.05;;;;;;;14.53;66.83;102632.84;5028467;28;20025;-73
2023/05/27 07:54:06;;;;;;;23.05;8.25;;;;;;;14.63;66.44;102623.38;5028173;28;20048;-73
2023/05/27 07:56:31;;;;;;;25.50;8.18;;;;;;;14.75;65.00;102624.41;5027880;28;20029;-73
2023/05/27 07:58:56;;;;;;;21.48;8.27;;;;;;;14.69;64.92;102623.00;5028416;28;20025;-73
2023/05/27 08:01:24;;;;;;;20.85;7.80;;;;;;;14.75;65.11;102611.16;5026950;28;20029;-72
2023/05/27 08:03:50;;;;;;;21.42;7.85;;;;;;;15.11;64.74;102612.41;5027772;28;20390;-73
2023/05/27 08:06:17;;;;;;;24.30;8.48;;;;;;;15.28;63.34;102615.66;5010943;28;20050;-72
2023/05/27 08:08:42;;;;;;;21.58;8.48;;;;;;;15.56;63.27;102613.81;5028591;28;20487;-73
2023/05/27 08:11:08;;;;;;;17.55;7.47;;;;;;;15.74;62.13;102603.81;5027614;28;20515;-72
2023/05/27 08:13:33;;;;;;;21.48;8.20;;;;;;;15.97;61.80;102603.94;5010699;28;20025;-72
2023/05/27 08:16:02;;;;;;;22.40;8.63;;;;;;;15.92;61.06;102594.59;5029416;28;20049;-72
2023/05/27 08:18:28;;;;;;;22.05;7.75;;;;;;;15.85;61.03;102593.31;5011064;28;20043;-72
2023/05/27 08:20:53;;;;;;;18.70;7.43;;;;;;;16.09;60.74;102599.63;5029344;28;20029;-72
2023/05/27 08:23:19;;;;;;;22.30;7.85;;;;;;;16.37;60.09;102589.69;5029369;28;20032;-73
2023/05/27 08:25:44;;;;;;;20.98;8.30;;;;;;;16.58;59.55;102589.03;5028542;28;20105;-72
2023/05/27 08:28:10;;;;;;;18.40;7.65;;;;;;;16.86;58.98;102581.78;5029127;28;20381;-72
2023/05/27 08:30:35;;;;;;;17.85;7.38;;;;;;;17.04;57.68;102579.56;5011579;28;20079;-72
2023/05/27 08:33:02;;;;;;;19.52;7.55;;;;;;;17.34;56.95;102577.28;5028163;28;20026;-73
2023/05/27 08:35:27;;;;;;;20.85;7.15;;;;;;;17.55;56.53;102565.00;5028729;28;20100;-73
2023/05/27 08:37:52;;;;;;;22.38;7.57;;;;;;;17.64;55.26;102557.31;5027995;28;20113;-72
2023/05/27 08:40:19;;;;;;;22.90;7.82;;;;;;;17.87;55.27;102553.75;5027374;28;20026;-72
2023/05/27 08:42:46;;;;;;;23.90;7.63;;;;;;;18.15;54.25;102561.28;5010417;28;20022;-72
2023/05/27 08:45:12;;;;;;;20.08;7.60;;;;;;;18.42;53.41;102544.94;5009576;28;20053;-73
2023/05/27 08:47:40;;;;;;;21.52;7.35;;;;;;;18.39;53.21;102549.63;5010629;28;20057;-73
2023/05/27 08:50:07;;;;;;;20.42;7.88;;;;;;;18.50;51.63;102546.97;5017235;28;20443;-73
2023/05/27 08:52:33;;;;;;;17.40;7.07;;;;;;;18.34;51.09;102543.81;5027519;28;20022;-72
2023/05/27 08:55:00;;;;;;;19.15;7.43;;;;;;;18.59;51.73;102546.22;5029982;28;20041;-71
2023/05/27 08:57:29;;;;;;;16.50;7.25;;;;;;;19.03;50.69;102544.44;5032048;28;20033;-71
2023/05/27 08:59:54;;;;;;;23.05;7.97;;;;;;;19.13;50.63;102533.84;5029252;28;20029;-71
2023/05/27 09:02:21;;;;;;;17.50;7.50;;;;;;;19.30;50.41;102531.47;5031765;28;20029;-71
2023/05/27 09:04:46;;;;;;;20.33;7.97;;;;;;;19.38;50.30;102526.31;5031507;28;20447;-73
2023/05/27 09:07:12;;;;;;;18.42;7.18;;;;;;;19.58;48.41;102542.50;5030586;28;20085;-72
2023/05/27 09:09:40;;;;;;;18.55;7.20;;;;;;;19.47;48.07;102535.38;5031315;28;20052;-72
2023/05/27 09:12:08;;;;;;;21.15;7.35;;;;;;;20.00;47.57;102520.09;5031971;28;20538;-72
2023/05/27 09:14:37;;;;;;;17.80;7.60;;;;;;;20.08;48.30;102519.44;5031741;28;20111;-71
2023/05/27 09:17:08;;;;;;;18.52;7.13;;;;;;;19.62;47.17;102530.59;5031729;28;20048;-72
2023/05/27 09:19:34;;;;;;;18.23;6.88;;;;;;;20.08;47.06;102515.94;5014400;28;20029;-73
2023/05/27 09:22:02;;;;;;;19.08;7.10;;;;;;;20.69;46.28;102515.84;5031352;28;20425;-75
2023/05/27 09:24:27;;;;;;;18.08;6.97;;;;;;;20.71;44.84;102513.88;5031090;28;20430;-72
2023/05/27 09:26:54;;;;;;;19.48;7.20;;;;;;;20.85;45.87;102516.16;5031780;28;20056;-72
2023/05/27 09:29:20;;;;;;;16.35;6.35;;;;;;;20.84;44.83;102503.75;5031161;28;20117;-72
2023/05/27 09:31:45;;;;;;;18.83;7.00;;;;;;;20.91;44.32;102504.88;5014444;28;20381;-72
2023/05/27 09:34:13;;;;;;;19.67;7.05;;;;;;;20.91;45.18;102497.69;5030578;28;20034;-72
2023/05/27 09:36:46;;;;;;;17.52;6.93;;;;;;;21.01;46.06;102496.84;5028091;28;20524;-73
2023/05/27 09:39:13;;;;;;;17.70;7.00;;;;;;;20.86;44.48;102496.44;5030633;28;20049;-72
2023/05/27 09:41:40;;;;;;;16.05;6.90;;;;;;;20.67;43.82;102497.25;5030198;28;20053;-73
2023/05/27 09:44:06;;;;;;;19.02;6.30;;;;;;;20.60;43.91;102491.63;5012478;28;20386;-72
2023/05/27 09:46:36;;;;;;;17.67;6.35;;;;;;;20.49;44.66;102497.09;5012808;28;20032;-72
2023/05/27 09:49:03;;;;;;;19.50;6.55;;;;;;;20.19;44.03;102491.75;5011542;28;20029;-72
2023/05/27 09:51:29;;;;;;;15.65;6.10;;;;;;;20.42;44.11;102492.44;5031126;28;20078;-72
2023/05/27 09:53:58;;;;;;;16.35;6.57;;;;;;;20.57;44.53;102483.03;5012686;28;20037;-72
2023/05/27 09:56:24;;;;;;;16.85;6.68;;;;;;;20.51;43.71;102484.44;5028786;28;20112;-72
2023/05/27 09:58:50;;;;;;;18.08;7.00;;;;;;;20.62;44.09;102484.28;5030193;28;20025;-72
2023/05/27 10:01:17;;;;;;;15.95;6.00;;;;;;;20.79;43.89;102476.56;5013159;28;20452;-72
2023/05/27 10:03:46;;;;;;;18.83;6.90;;;;;;;20.68;43.81;102477.53;5029665;28;20037;-72
2023/05/27 10:06:15;;;;;;;20.42;7.13;;;;;;;20.30;44.14;102479.13;5008752;28;20463;-73
2023/05/27 10:08:43;;;;;;;18.23;6.40;;;;;;;20.24;44.31;102474.34;5010518;28;20478;-72
2023/05/27 10:11:10;;;;;;;20.08;7.30;;;;;;;20.29;44.61;102471.25;5009726;28;20022;-72
2023/05/27 10:13:36;;;;;;;20.08;7.20;;;;;;;20.13;45.83;102465.59;5010607;28;20080;-72
2023/05/27 10:16:02;;;;;;;23.35;7.88;;;;;;;19.98;47.13;102463.28;5011142;28;21032;-72
2023/05/27 10:18:33;;;;;;;21.83;8.57;;;;;;;19.78;47.46;102466.84;5010880;28;20100;-73
2023/05/27 10:21:04;;;;;;;22.95;8.15;;;;;;;19.77;48.65;102456.31;5011628;28;20024;-73
2023/05/27 10:23:31;;;;;;;20.38;7.95;;;;;;;20.13;47.63;102454.91;5010574;28;20034;-72
2023/05/27 10:26:07;;;;;;;18.05;7.50;;;;;;;20.38;47.63;102459.72;4991504;28;20022;-72
2023/05/27 10:28:36;;;;;;;23.23;8.10;;;;;;;20.32;46.52;102454.94;4993224;28;20466;-72
2023/05/27 10:31:09;;;;;;;20.92;8.23;;;;;;;20.64;47.65;102452.91;5010554;28;20022;-72
2023/05/27 10:33:38;;;;;;;17.33;7.20;;;;;;;20.99;47.01;102443.47;5011307;28;20026;-72
2023/05/27 10:36:08;;;;;;;16.75;7.47;;;;;;;21.22;45.42;102438.66;5010596;28;20526;-72
2023/05/27 10:38:35;;;;;;;22.52;8.32;;;;;;;21.21;44.58;102443.16;5009583;28;20163;-73
2023/05/27 10:41:02;;;;;;;23.20;7.82;;;;;;;21.43;44.79;102435.81;5009814;28;20037;-72
2023/05/27 10:43:33;;;;;;;22.30;7.78;;;;;;;21.43;43.16;102433.13;5010416;28;20113;-76
2023/05/27 10:46:11;;;;;;;22.50;8.00;;;;;;;21.75;44.74;102436.25;5009316;28;20021;-72
2023/05/27 10:48:39;;;;;;;19.73;8.05;;;;;;;21.80;43.94;102425.94;5009808;28;20513;-73
2023/05/27 10:51:05;;;;;;;19.92;6.85;;;;;;;21.60;42.48;102432.34;5009615;28;20048;-74
2023/05/27 10:53:31;;;;;;;23.02;8.13;;;;;;;21.85;42.55;102422.81;5009234;28;20418;-73
2023/05/27 10:56:03;;;;;;;16.80;6.80;;;;;;;22.07;42.01;102422.44;5009796;28;20029;-73
2023/05/27 10:58:35;;;;;;;17.33;6.65;;;;;;;22.16;41.16;102413.50;5008375;28;20022;-73
2023/05/27 11:01:08;;;;;;;16.70;6.10;;;;;;;22.07;40.03;102408.19;5009316;28;20041;-73
2023/05/27 11:03:34;;;;;;;14.80;6.28;;;;;;;22.49;41.62;102403.09;5009411;28;20157;-72
2023/05/27 11:06:04;;;;;;;20.75;6.53;;;;;;;22.41;40.59;102409.19;5017801;28;20053;-72
2023/05/27 11:08:31;;;;;;;17.65;7.18;;;;;;;22.28;40.72;102400.69;5029379;28;20029;-72
2023/05/27 11:11:05;;;;;;;21.83;7.43;;;;;;;22.36;41.10;102392.72;5029063;28;20041;-72
2023/05/27 11:13:31;;;;;;;19.38;6.93;;;;;;;22.64;40.90;102385.44;5029319;28;20017;-72
2023/05/27 11:15:57;;;;;;;20.65;7.55;;;;;;;22.92;40.92;102380.84;5030194;28;20025;-72
2023/05/27 11:18:22;;;;;;;20.02;7.80;;;;;;;22.94;40.42;102376.16;5028282;28;20033;-73